Terminal Aerodrome Forecast
Issued by NWS

Home | Current Version | Previous Version | Graphics & Text | Print | Product List | Glossary On
Versions: 1 2 3 4 5 6 7 8 9 10 11 12 13 14 15 16 17 18 19 20
000
FTUS43 KFGF 260400 AAA
TAFBJI
TAF AMD
KBJI 260437Z 2605/2624 06003KT P6SM OVC024
     FM261000 33008KT P6SM OVC015
     FM261700 33009KT P6SM BKN020=

USA.gov is the U.S. government's official web portal to all federal, state and local government web resources and services.